createdAt,value
2023-01-04T00:00:48.942Z,4.50
2023-01-04T00:03:18.376Z,4.57
2023-01-04T00:05:47.646Z,4.71
2023-01-04T00:08:16.752Z,4.72
2023-01-04T00:10:46.117Z,4.70
2023-01-04T00:13:16.725Z,4.68
2023-01-04T00:15:45.912Z,4.62
2023-01-04T00:18:15.435Z,4.46
2023-01-04T00:20:44.897Z,4.34
2023-01-04T00:23:14.064Z,4.25
2023-01-04T00:25:43.524Z,4.18
2023-01-04T00:28:12.616Z,4.17
2023-01-04T00:30:44.059Z,4.13
2023-01-04T00:33:13.519Z,4.17
2023-01-04T00:35:46.160Z,4.25
2023-01-04T00:38:15.638Z,4.35
2023-01-04T00:40:44.891Z,4.41
2023-01-04T00:43:14.298Z,4.50
2023-01-04T00:45:45.953Z,4.49
2023-01-04T00:48:15.164Z,4.52
2023-01-04T00:50:46.115Z,4.45
2023-01-04T00:53:19.060Z,4.38
2023-01-04T00:55:50.049Z,4.28
2023-01-04T00:58:19.270Z,4.31
2023-01-04T01:00:53.070Z,4.39
2023-01-04T01:03:22.499Z,4.39
2023-01-04T01:05:51.791Z,4.37
2023-01-04T01:08:26.763Z,4.40
2023-01-04T01:10:56.786Z,4.45
2023-01-04T01:13:27.826Z,4.61
2023-01-04T01:15:58.548Z,4.78
2023-01-04T01:18:27.805Z,4.77
2023-01-04T01:20:56.889Z,4.75
2023-01-04T01:23:25.980Z,4.74
2023-01-04T01:25:55.232Z,4.81
2023-01-04T01:28:24.422Z,4.71
2023-01-04T01:30:54.736Z,4.72
2023-01-04T01:33:25.268Z,4.69
2023-01-04T01:35:54.407Z,4.66
2023-01-04T01:38:23.497Z,4.65
2023-01-04T01:40:52.959Z,4.81
2023-01-04T01:43:25.559Z,4.82
2023-01-04T01:45:58.021Z,4.81
2023-01-04T01:48:30.996Z,4.72
2023-01-04T01:51:04.763Z,4.71
2023-01-04T01:53:42.173Z,4.72
2023-01-04T01:56:11.978Z,4.76
2023-01-04T01:58:45.023Z,4.69
2023-01-04T02:01:14.788Z,4.66
2023-01-04T02:03:45.964Z,4.72
2023-01-04T02:06:22.740Z,4.68
2023-01-04T02:08:52.636Z,4.67
2023-01-04T02:11:21.800Z,4.66
2023-01-04T02:14:09.305Z,4.70
2023-01-04T02:16:56.416Z,4.64
2023-01-04T02:20:03.876Z,4.61
2023-01-04T02:23:16.851Z,4.57
2023-01-04T02:26:59.168Z,4.46
2023-01-04T02:30:33.760Z,4.45
2023-01-04T02:33:18.174Z,4.49
2023-01-04T02:36:00.579Z,4.50
2023-01-04T02:38:39.823Z,4.61
2023-01-04T02:41:20.334Z,4.56
2023-01-04T02:44:14.464Z,4.53
2023-01-04T02:46:48.034Z,4.55
2023-01-04T02:49:36.325Z,4.49
2023-01-04T02:52:05.577Z,4.51
2023-01-04T02:54:35.181Z,4.51
2023-01-04T02:57:27.005Z,4.50
2023-01-04T03:00:21.198Z,4.54
2023-01-04T03:03:27.050Z,4.55
2023-01-04T03:06:16.596Z,4.61
2023-01-04T03:08:57.672Z,4.64
2023-01-04T03:11:54.867Z,4.71
2023-01-04T03:14:33.375Z,4.82
2023-01-04T03:17:05.960Z,4.85
2023-01-04T03:19:55.508Z,4.81
2023-01-04T03:22:52.736Z,4.74
2023-01-04T03:25:53.933Z,4.72
2023-01-04T03:28:44.286Z,4.73
2023-01-04T03:31:38.436Z,4.70
2023-01-04T03:34:25.161Z,4.68
2023-01-04T03:37:08.639Z,4.68
2023-01-04T03:40:10.680Z,4.65
2023-01-04T03:43:06.150Z,4.65
2023-01-04T03:46:01.875Z,4.66
2023-01-04T03:48:37.913Z,4.64
2023-01-04T03:51:15.706Z,4.65
2023-01-04T03:53:54.695Z,4.69
2023-01-04T03:56:26.447Z,4.56
2023-01-04T03:58:55.932Z,4.46
2023-01-04T04:01:28.339Z,4.46
2023-01-04T04:04:15.352Z,4.59
2023-01-04T04:07:01.926Z,4.60
2023-01-04T04:09:31.142Z,4.54
2023-01-04T04:12:01.653Z,4.55
2023-01-04T04:14:31.093Z,4.56
2023-01-04T04:17:00.337Z,4.55
2023-01-04T04:19:29.562Z,4.53
2023-01-04T04:21:58.704Z,4.53
2023-01-04T04:24:28.633Z,4.53
2023-01-04T04:26:57.829Z,4.53
2023-01-04T04:29:28.243Z,4.54
2023-01-04T04:31:57.401Z,4.62
2023-01-04T04:34:26.588Z,4.64
2023-01-04T04:36:55.758Z,4.61
2023-01-04T04:39:24.903Z,4.62
2023-01-04T04:41:53.024Z,4.67
2023-01-04T04:44:22.439Z,4.64
2023-01-04T04:46:53.031Z,4.59
2023-01-04T04:49:22.389Z,4.58
2023-01-04T04:51:51.490Z,4.54
2023-01-04T04:54:23.087Z,4.50
2023-01-04T04:56:54.416Z,4.47
2023-01-04T04:59:23.507Z,4.47
2023-01-04T05:01:54.195Z,4.52
2023-01-04T05:04:23.459Z,4.58
2023-01-04T05:06:53.344Z,4.53
2023-01-04T05:09:24.416Z,4.53
2023-01-04T05:12:11.150Z,4.54
2023-01-04T05:14:40.175Z,4.52
2023-01-04T05:17:10.820Z,4.55
2023-01-04T05:19:42.190Z,4.64
2023-01-04T05:22:11.362Z,4.69
2023-01-04T05:24:40.534Z,4.74
2023-01-04T05:27:09.674Z,4.71
2023-01-04T05:29:56.574Z,4.64
2023-01-04T05:32:27.097Z,4.63
2023-01-04T05:34:56.188Z,4.66
2023-01-04T05:37:25.787Z,4.78
2023-01-04T05:39:54.951Z,4.82
2023-01-04T05:42:27.923Z,4.93
2023-01-04T05:44:59.363Z,4.82
2023-01-04T05:47:30.486Z,4.87
2023-01-04T05:49:59.736Z,4.82
2023-01-04T05:52:29.513Z,4.86
2023-01-04T05:54:58.685Z,4.80
2023-01-04T05:57:28.129Z,4.72
2023-01-04T05:59:57.378Z,4.77
2023-01-04T06:02:32.294Z,4.74
2023-01-04T06:05:01.913Z,4.69
2023-01-04T06:07:35.005Z,4.67
2023-01-04T06:10:04.229Z,4.79
2023-01-04T06:12:33.400Z,4.68
2023-01-04T06:15:02.570Z,4.61
2023-01-04T06:17:33.287Z,4.61
2023-01-04T06:20:02.577Z,4.60
2023-01-04T06:22:32.900Z,4.69
2023-01-04T06:25:02.069Z,4.63
2023-01-04T06:27:31.304Z,4.67
2023-01-04T06:30:00.455Z,4.56
2023-01-04T06:32:29.682Z,4.55
2023-01-04T06:35:00.405Z,4.54
2023-01-04T06:37:29.569Z,4.55
2023-01-04T06:39:58.740Z,4.80
2023-01-04T06:42:45.984Z,4.72
2023-01-04T06:45:16.521Z,4.84
2023-01-04T06:47:47.902Z,4.65
2023-01-04T06:50:18.788Z,4.64
2023-01-04T06:52:47.932Z,4.56
2023-01-04T06:55:17.301Z,4.56
2023-01-04T06:57:46.351Z,4.60
2023-01-04T07:00:16.995Z,4.62
2023-01-04T07:03:13.935Z,4.56
2023-01-04T07:05:36.799Z,4.56
2023-01-04T07:08:08.361Z,4.64
2023-01-04T07:10:38.514Z,4.62
2023-01-04T07:13:08.261Z,4.68
2023-01-04T07:15:40.681Z,4.80
2023-01-04T07:18:11.200Z,4.82
2023-01-04T07:20:41.820Z,4.84
2023-01-04T07:23:11.759Z,4.83
2023-01-04T07:25:40.896Z,4.90
2023-01-04T07:28:10.866Z,4.97
2023-01-04T07:30:40.080Z,4.97
2023-01-04T07:33:09.372Z,4.94
2023-01-04T07:35:38.463Z,5.05
2023-01-04T07:38:09.022Z,5.08
2023-01-04T07:40:38.058Z,5.14
2023-01-04T07:43:28.231Z,5.15
2023-01-04T07:45:57.936Z,5.11
2023-01-04T07:48:29.702Z,5.30
2023-01-04T07:50:58.870Z,5.25
2023-01-04T07:53:29.588Z,5.37
2023-01-04T07:55:59.198Z,5.49
2023-01-04T07:58:32.992Z,5.52
2023-01-04T08:01:08.854Z,5.44
2023-01-04T08:03:38.513Z,5.51
2023-01-04T08:06:09.341Z,5.56
2023-01-04T08:08:39.983Z,5.71
2023-01-04T08:11:12.996Z,5.69
2023-01-04T08:13:42.679Z,5.66
2023-01-04T08:16:27.770Z,5.79
2023-01-04T08:18:59.304Z,5.88
2023-01-04T08:21:31.088Z,5.86
2023-01-04T08:24:02.183Z,5.87
2023-01-04T08:26:31.758Z,6.00
2023-01-04T08:29:00.995Z,6.03
2023-01-04T08:31:32.677Z,6.04
2023-01-04T08:34:05.147Z,6.09
2023-01-04T08:36:36.583Z,6.26
2023-01-04T08:39:07.847Z,6.26
2023-01-04T08:44:40.136Z,6.46
2023-01-04T08:47:09.945Z,6.60
2023-01-04T08:49:39.132Z,6.84
2023-01-04T08:52:10.095Z,7.09
2023-01-04T08:54:40.614Z,7.34
2023-01-04T08:57:09.673Z,7.50
2023-01-04T08:59:38.877Z,7.59
2023-01-04T09:02:21.206Z,7.78
2023-01-04T09:04:51.415Z,7.92
2023-01-04T09:07:21.256Z,8.19
2023-01-04T09:09:51.771Z,8.34
2023-01-04T09:12:20.871Z,8.47
2023-01-04T09:14:50.377Z,8.60
2023-01-04T09:17:19.789Z,8.68
2023-01-04T09:19:49.415Z,8.69
2023-01-04T09:22:18.824Z,8.83
2023-01-04T09:24:50.106Z,8.82
2023-01-04T09:27:20.788Z,8.86
2023-01-04T09:29:49.894Z,8.98
2023-01-04T09:32:19.733Z,9.06
2023-01-04T09:34:49.258Z,9.09
2023-01-04T09:37:18.408Z,9.17
2023-01-04T09:39:47.744Z,9.13
2023-01-04T09:42:24.248Z,8.97
2023-01-04T09:47:56.088Z,9.33
2023-01-04T09:50:29.874Z,9.69
2023-01-04T09:53:12.596Z,9.68
2023-01-04T09:55:48.250Z,9.91
2023-01-04T09:58:29.309Z,10.18
2023-01-04T10:01:04.828Z,10.23
2023-01-04T10:03:36.387Z,10.09
2023-01-04T10:06:09.329Z,10.17
2023-01-04T10:08:38.590Z,10.12
2023-01-04T10:11:33.386Z,10.03
2023-01-04T10:14:35.540Z,9.90
2023-01-04T10:17:35.662Z,9.86
2023-01-04T10:21:26.756Z,9.89
2023-01-04T10:24:12.418Z,9.75
2023-01-04T10:26:47.173Z,9.84
2023-01-04T10:29:45.657Z,10.00
2023-01-04T10:32:21.136Z,10.23
2023-01-04T10:34:50.897Z,10.22
2023-01-04T10:37:23.485Z,10.06
2023-01-04T10:39:55.889Z,10.11
2023-01-04T10:42:38.361Z,10.09
2023-01-04T10:45:18.080Z,10.04
2023-01-04T10:48:03.928Z,9.99
2023-01-04T10:50:41.013Z,10.03
2023-01-04T10:53:17.960Z,10.03
2023-01-04T10:56:25.236Z,10.05
2023-01-04T10:58:51.535Z,9.86
2023-01-04T11:01:29.847Z,9.83
2023-01-04T11:04:06.503Z,9.97
2023-01-04T11:06:42.054Z,10.10
2023-01-04T11:09:24.887Z,10.09
2023-01-04T11:11:58.186Z,10.06
2023-01-04T11:14:33.308Z,10.15
2023-01-04T11:17:10.198Z,10.37
2023-01-04T11:19:40.314Z,10.47
2023-01-04T11:22:18.079Z,10.59
2023-01-04T11:25:32.554Z,10.49
2023-01-04T11:27:48.134Z,10.55
2023-01-04T11:30:21.092Z,10.60
2023-01-04T11:32:59.631Z,10.47
2023-01-04T11:35:42.823Z,10.53
2023-01-04T11:38:16.571Z,10.49
2023-01-04T11:40:59.861Z,10.46
2023-01-04T11:43:31.184Z,10.47
2023-01-04T11:46:05.503Z,10.70
2023-01-04T11:48:42.541Z,10.71
2023-01-04T11:51:39.554Z,10.50
2023-01-04T11:54:21.129Z,10.28
2023-01-04T11:57:10.831Z,10.23
2023-01-04T11:59:41.056Z,10.31
2023-01-04T12:05:28.206Z,10.53
2023-01-04T12:07:59.357Z,10.54
2023-01-04T12:10:31.249Z,10.55
2023-01-04T12:13:03.305Z,10.54
2023-01-04T12:15:40.129Z,10.68
2023-01-04T12:18:18.716Z,10.69
2023-01-04T12:20:50.405Z,10.70
2023-01-04T12:23:20.705Z,10.74
2023-01-04T12:25:52.360Z,10.85
2023-01-04T12:28:37.311Z,10.89
2023-01-04T12:31:33.686Z,10.91
2023-01-04T12:34:43.485Z,11.00
2023-01-04T12:37:49.717Z,11.21
2023-01-04T12:40:54.303Z,11.24
2023-01-04T12:43:28.674Z,11.38
2023-01-04T12:47:01.277Z,11.79
2023-01-04T12:50:00.256Z,12.14
2023-01-04T12:55:59.389Z,13.04
2023-01-04T12:59:25.842Z,13.01
2023-01-04T13:02:23.417Z,13.19
2023-01-04T13:05:16.933Z,13.43
2023-01-04T13:07:50.818Z,13.51
2023-01-04T13:10:33.689Z,13.66
2023-01-04T13:13:34.020Z,13.84
2023-01-04T13:16:18.936Z,13.97
2023-01-04T13:18:51.563Z,14.03
2023-01-04T13:21:29.624Z,13.81
2023-01-04T13:24:02.659Z,13.35
2023-01-04T13:26:39.482Z,12.99
2023-01-04T13:29:13.571Z,12.99
2023-01-04T13:31:50.104Z,13.46
2023-01-04T13:34:28.490Z,14.27
2023-01-04T13:37:17.283Z,15.03
2023-01-04T13:39:51.198Z,15.73
2023-01-04T13:42:28.348Z,15.89
2023-01-04T13:46:10.032Z,15.67
2023-01-04T13:48:42.848Z,15.86
2023-01-04T13:51:18.562Z,16.01
2023-01-04T13:53:58.642Z,15.88
2023-01-04T13:56:31.899Z,15.99
2023-01-04T13:59:01.601Z,16.24
2023-01-04T14:01:33.455Z,16.00
2023-01-04T14:04:06.096Z,15.92
2023-01-04T14:06:41.185Z,16.40
2023-01-04T14:09:18.491Z,17.19
2023-01-04T14:12:07.692Z,18.73
2023-01-04T14:14:47.356Z,20.92
2023-01-04T14:17:32.658Z,21.95
2023-01-04T14:20:02.932Z,22.59
2023-01-04T14:22:53.673Z,23.06
2023-01-04T14:25:44.996Z,23.01
2023-01-04T14:28:47.053Z,22.36
2023-01-04T14:31:33.960Z,21.93
2023-01-04T14:34:12.962Z,20.53
2023-01-04T14:36:45.409Z,19.00
2023-01-04T14:39:35.062Z,18.56
2023-01-04T14:42:05.257Z,18.24
2023-01-04T14:44:41.187Z,18.05
2023-01-04T14:47:12.935Z,17.56
2023-01-04T14:49:42.114Z,16.67
2023-01-04T14:52:13.670Z,15.60
2023-01-04T14:54:42.811Z,14.57
2023-01-04T14:57:12.420Z,13.51
2023-01-04T14:59:44.152Z,12.52
2023-01-04T15:02:14.136Z,11.74
2023-01-04T15:04:43.340Z,11.12
2023-01-04T15:07:35.503Z,10.56
2023-01-04T15:10:06.827Z,10.16
2023-01-04T15:12:36.039Z,9.76
2023-01-04T15:15:08.257Z,9.44
2023-01-04T15:17:37.616Z,9.06
2023-01-04T15:20:08.533Z,8.76
2023-01-04T15:22:37.653Z,8.49
2023-01-04T15:25:08.363Z,8.28
2023-01-04T15:27:42.136Z,8.05
2023-01-04T15:30:14.867Z,7.96
2023-01-04T15:32:44.400Z,7.75
2023-01-04T15:35:16.963Z,7.50
2023-01-04T15:37:49.483Z,7.43
2023-01-04T15:40:20.213Z,7.28
2023-01-04T15:43:01.888Z,7.03
2023-01-04T15:45:38.298Z,6.87
2023-01-04T15:48:12.776Z,6.78
2023-01-04T15:50:45.462Z,6.64
2023-01-04T15:53:14.687Z,6.63
2023-01-04T15:55:43.942Z,6.66
2023-01-04T15:58:13.785Z,6.62
2023-01-04T16:00:44.315Z,6.60
2023-01-04T16:03:13.620Z,6.55
2023-01-04T16:05:42.796Z,6.46
2023-01-04T16:08:14.554Z,6.35
2023-01-04T16:10:44.744Z,6.36
2023-01-04T16:13:13.965Z,6.28
2023-01-04T16:15:44.718Z,6.31
2023-01-04T16:18:14.485Z,6.31
2023-01-04T16:20:43.867Z,6.02
2023-01-04T16:23:12.972Z,5.99
2023-01-04T16:25:42.123Z,6.02
2023-01-04T16:28:11.406Z,6.07
2023-01-04T16:30:41.513Z,6.14
2023-01-04T16:33:12.116Z,5.99
2023-01-04T16:35:41.258Z,5.83
2023-01-04T16:38:10.412Z,5.84
2023-01-04T16:40:39.578Z,5.87
2023-01-04T16:43:08.841Z,5.86
2023-01-04T16:45:39.039Z,5.88
2023-01-04T16:48:10.199Z,6.01
2023-01-04T16:50:44.244Z,5.99
2023-01-04T16:53:13.345Z,5.86
2023-01-04T16:55:42.486Z,5.87
2023-01-04T16:58:11.542Z,5.84
2023-01-04T17:00:40.826Z,5.80
2023-01-04T17:03:10.049Z,5.66
2023-01-04T17:05:40.863Z,5.65
2023-01-04T17:08:11.452Z,5.51
2023-01-04T17:10:40.633Z,5.58
2023-01-04T17:13:09.673Z,5.56
2023-01-04T17:15:43.504Z,5.74
2023-01-04T17:18:17.658Z,5.80
2023-01-04T17:20:54.822Z,5.74
2023-01-04T17:23:27.179Z,5.75
2023-01-04T17:26:10.446Z,5.64
2023-01-04T17:28:41.220Z,5.64
2023-01-04T17:31:16.168Z,5.60
2023-01-04T17:33:45.777Z,5.39
2023-01-04T17:36:18.066Z,5.40
2023-01-04T17:38:49.365Z,5.33
2023-01-04T17:41:21.027Z,5.36
2023-01-04T17:43:53.634Z,5.44
2023-01-04T17:46:24.599Z,5.43
2023-01-04T17:49:24.152Z,5.46
2023-01-04T17:51:43.239Z,5.51
2023-01-04T17:54:14.078Z,5.51
2023-01-04T17:56:43.448Z,5.54
2023-01-04T17:59:12.890Z,5.55
2023-01-04T18:01:43.871Z,5.46
2023-01-04T18:04:13.084Z,5.39
2023-01-04T18:06:42.542Z,5.38
2023-01-04T18:09:18.496Z,5.45
2023-01-04T18:11:51.198Z,5.48
2023-01-04T18:14:20.614Z,5.72
2023-01-04T18:16:59.287Z,5.72
2023-01-04T18:19:31.333Z,5.74
2023-01-04T18:22:00.911Z,5.71
2023-01-04T18:24:37.372Z,5.94
2023-01-04T18:27:21.427Z,5.95
2023-01-04T18:29:52.431Z,5.87
2023-01-04T18:32:22.159Z,5.68
2023-01-04T18:34:51.483Z,5.46
2023-01-04T18:37:20.707Z,5.41
2023-01-04T18:39:51.353Z,5.31
2023-01-04T18:42:20.583Z,5.25
2023-01-04T18:44:50.100Z,5.26
2023-01-04T18:47:20.789Z,5.26
2023-01-04T18:49:51.082Z,5.37
2023-01-04T18:52:20.697Z,5.73
2023-01-04T18:54:51.244Z,5.59
2023-01-04T18:57:20.445Z,5.69
2023-01-04T18:59:50.309Z,5.56
2023-01-04T19:02:23.673Z,5.37
2023-01-04T19:04:52.953Z,5.31
2023-01-04T19:07:22.142Z,5.24
2023-01-04T19:09:52.775Z,5.30
2023-01-04T19:12:22.062Z,5.46
2023-01-04T19:14:51.442Z,5.50
2023-01-04T19:17:24.548Z,5.45
2023-01-04T19:19:53.974Z,5.57
2023-01-04T19:22:23.277Z,5.56
2023-01-04T19:24:54.028Z,5.42
2023-01-04T19:27:23.491Z,5.40
2023-01-04T19:29:53.477Z,5.24
2023-01-04T19:32:22.734Z,5.20
2023-01-04T19:34:52.228Z,5.08
2023-01-04T19:37:21.548Z,5.09
2023-01-04T19:39:51.051Z,5.10
2023-01-04T19:42:21.602Z,5.13
2023-01-04T19:44:50.938Z,5.21
2023-01-04T19:47:22.449Z,5.22
2023-01-04T19:49:51.546Z,5.25
2023-01-04T19:52:23.995Z,5.48
2023-01-04T19:54:53.300Z,5.52
2023-01-04T19:57:23.984Z,5.42
2023-01-04T19:59:53.122Z,5.33
2023-01-04T20:02:22.382Z,5.37
2023-01-04T20:04:51.810Z,5.30
2023-01-04T20:07:24.019Z,5.29
2023-01-04T20:09:54.052Z,5.18
2023-01-04T20:12:24.695Z,5.14
2023-01-04T20:14:54.036Z,5.15
2023-01-04T20:17:23.412Z,5.01
2023-01-04T20:19:52.527Z,5.06
2023-01-04T20:22:22.191Z,5.01
2023-01-04T20:24:52.313Z,5.02
2023-01-04T20:27:21.523Z,4.95
2023-01-04T20:29:51.993Z,4.94
2023-01-04T20:32:21.106Z,4.99
2023-01-04T20:34:50.261Z,5.08
2023-01-04T20:37:19.668Z,4.93
2023-01-04T20:39:48.925Z,4.91
2023-01-04T20:42:35.351Z,4.74
2023-01-04T20:45:08.819Z,4.71
2023-01-04T20:47:38.035Z,4.69
2023-01-04T20:50:13.007Z,4.63
2023-01-04T20:52:42.448Z,4.58
2023-01-04T20:55:17.222Z,4.58
2023-01-04T20:57:47.221Z,4.46
2023-01-04T21:00:20.518Z,4.51
2023-01-04T21:02:53.193Z,4.50
2023-01-04T21:05:22.960Z,4.63
2023-01-04T21:07:52.158Z,4.54
2023-01-04T21:10:22.349Z,4.57
2023-01-04T21:12:51.808Z,4.52
2023-01-04T21:15:23.324Z,4.45
2023-01-04T21:17:53.802Z,4.38
2023-01-04T21:20:24.913Z,4.28
2023-01-04T21:22:56.051Z,4.21
2023-01-04T21:25:25.529Z,4.20
2023-01-04T21:28:00.705Z,4.25
2023-01-04T21:30:31.534Z,4.26
2023-01-04T21:33:02.249Z,4.33
2023-01-04T21:35:31.810Z,4.51
2023-01-04T21:38:01.322Z,4.52
2023-01-04T21:40:30.656Z,4.49
2023-01-04T21:42:59.968Z,4.43
2023-01-04T21:45:30.727Z,4.55
2023-01-04T21:47:59.849Z,4.49
2023-01-04T21:50:30.721Z,4.45
2023-01-04T21:53:00.116Z,4.40
2023-01-04T21:55:34.844Z,4.39
2023-01-04T21:58:04.726Z,4.46
2023-01-04T22:00:35.306Z,4.37
2023-01-04T22:03:04.572Z,4.41
2023-01-04T22:05:33.651Z,4.32
2023-01-04T22:08:02.851Z,4.31
2023-01-04T22:10:32.026Z,4.20
2023-01-04T22:13:01.228Z,4.22
2023-01-04T22:15:30.537Z,4.36
2023-01-04T22:18:01.158Z,4.30
2023-01-04T22:20:30.726Z,4.24
2023-01-04T22:23:00.315Z,4.24
2023-01-04T22:25:29.429Z,4.19
2023-01-04T22:27:58.550Z,4.16
2023-01-04T22:30:27.981Z,4.12
2023-01-04T22:32:57.337Z,4.12
2023-01-04T22:35:28.117Z,4.18
2023-01-04T22:37:57.356Z,4.26
2023-01-04T22:40:26.763Z,4.25
2023-01-04T22:42:55.802Z,4.37
2023-01-04T22:45:24.977Z,4.36
2023-01-04T22:47:54.098Z,4.36
2023-01-04T22:50:23.603Z,4.33
2023-01-04T22:52:55.398Z,4.32
2023-01-04T22:55:45.771Z,4.26
2023-01-04T22:58:17.438Z,4.22
2023-01-04T23:00:46.586Z,4.30
2023-01-04T23:03:16.300Z,4.38
2023-01-04T23:05:45.630Z,4.30
2023-01-04T23:08:16.184Z,4.36
2023-01-04T23:10:46.609Z,4.38
2023-01-04T23:13:15.829Z,4.44
2023-01-04T23:15:45.033Z,4.36
2023-01-04T23:18:15.504Z,4.24
2023-01-04T23:20:44.624Z,4.16
2023-01-04T23:23:15.236Z,4.22
2023-01-04T23:25:44.419Z,4.26
2023-01-04T23:28:13.580Z,4.39
2023-01-04T23:30:44.029Z,4.34
2023-01-04T23:33:13.327Z,4.28
2023-01-04T23:35:42.502Z,4.29
2023-01-04T23:38:11.672Z,4.20
2023-01-04T23:40:47.732Z,4.10
2023-01-04T23:43:16.944Z,4.07
2023-01-04T23:45:51.182Z,4.02
2023-01-04T23:48:20.875Z,3.94
2023-01-04T23:50:56.585Z,3.94
2023-01-04T23:53:26.240Z,3.92
2023-01-04T23:56:03.185Z,3.89
2023-01-04T23:58:34.346Z,3.85
